sensor_id;sensor_type;location;lat;lon;timestamp;temperature;humidity
33508;DHT22;25568;37.410;-122.096;2023-02-28T00:01:56;16.60;78.20
33508;DHT22;25568;37.410;-122.096;2023-02-28T00:04:27;16.60;78.20
33508;DHT22;25568;37.410;-122.096;2023-02-28T00:06:56;16.60;78.20
33508;DHT22;25568;37.410;-122.096;2023-02-28T00:09:24;16.60;78.40
33508;DHT22;25568;37.410;-122.096;2023-02-28T00:11:53;16.60;78.50
33508;DHT22;25568;37.410;-122.096;2023-02-28T00:14:22;16.60;78.60
33508;DHT22;25568;37.410;-122.096;2023-02-28T00:16:51;16.70;78.70
33508;DHT22;25568;37.410;-122.096;2023-02-28T00:19:20;16.70;78.70
33508;DHT22;25568;37.410;-122.096;2023-02-28T00:22:08;16.70;78.70
33508;DHT22;25568;37.410;-122.096;2023-02-28T00:24:37;16.70;78.70
33508;DHT22;25568;37.410;-122.096;2023-02-28T00:27:06;16.70;78.90
33508;DHT22;25568;37.410;-122.096;2023-02-28T00:29:35;16.70;78.90
33508;DHT22;25568;37.410;-122.096;2023-02-28T00:32:05;16.60;78.90
33508;DHT22;25568;37.410;-122.096;2023-02-28T00:34:34;16.70;79.00
33508;DHT22;25568;37.410;-122.096;2023-02-28T00:37:05;16.70;78.90
33508;DHT22;25568;37.410;-122.096;2023-02-28T00:39:36;16.70;78.90
33508;DHT22;25568;37.410;-122.096;2023-02-28T00:42:06;16.70;78.90
33508;DHT22;25568;37.410;-122.096;2023-02-28T00:44:35;16.70;78.90
33508;DHT22;25568;37.410;-122.096;2023-02-28T00:47:05;16.70;78.90
33508;DHT22;25568;37.410;-122.096;2023-02-28T00:49:33;16.70;78.90
33508;DHT22;25568;37.410;-122.096;2023-02-28T00:52:03;16.70;79.00
33508;DHT22;25568;37.410;-122.096;2023-02-28T00:54:31;16.70;79.00
33508;DHT22;25568;37.410;-122.096;2023-02-28T00:57:05;16.70;79.20
33508;DHT22;25568;37.410;-122.096;2023-02-28T00:59:34;16.70;79.30
33508;DHT22;25568;37.410;-122.096;2023-02-28T01:02:03;16.60;79.40
33508;DHT22;25568;37.410;-122.096;2023-02-28T01:04:32;16.70;79.50
33508;DHT22;25568;37.410;-122.096;2023-02-28T01:07:02;16.70;79.60
33508;DHT22;25568;37.410;-122.096;2023-02-28T01:09:31;16.60;79.70
33508;DHT22;25568;37.410;-122.096;2023-02-28T01:12:02;16.60;79.70
33508;DHT22;25568;37.410;-122.096;2023-02-28T01:14:33;16.60;79.70
33508;DHT22;25568;37.410;-122.096;2023-02-28T01:17:02;16.60;79.70
33508;DHT22;25568;37.410;-122.096;2023-02-28T01:19:31;16.60;79.80
33508;DHT22;25568;37.410;-122.096;2023-02-28T01:22:04;16.60;79.80
33508;DHT22;25568;37.410;-122.096;2023-02-28T01:24:34;16.60;79.90
33508;DHT22;25568;37.410;-122.096;2023-02-28T01:27:03;16.60;80.20
33508;DHT22;25568;37.410;-122.096;2023-02-28T01:29:34;16.60;80.40
33508;DHT22;25568;37.410;-122.096;2023-02-28T01:32:03;16.60;80.40
33508;DHT22;25568;37.410;-122.096;2023-02-28T01:34:32;16.60;80.20
33508;DHT22;25568;37.410;-122.096;2023-02-28T01:37:03;16.60;80.10
33508;DHT22;25568;37.410;-122.096;2023-02-28T01:39:31;16.60;80.40
33508;DHT22;25568;37.410;-122.096;2023-02-28T01:42:00;16.60;80.30
33508;DHT22;25568;37.410;-122.096;2023-02-28T01:45:02;16.60;80.10
33508;DHT22;25568;37.410;-122.096;2023-02-28T01:47:35;16.60;80.20
33508;DHT22;25568;37.410;-122.096;2023-02-28T01:50:07;16.60;80.10
33508;DHT22;25568;37.410;-122.096;2023-02-28T01:52:38;16.60;80.10
33508;DHT22;25568;37.410;-122.096;2023-02-28T01:55:08;16.60;80.80
33508;DHT22;25568;37.410;-122.096;2023-02-28T01:57:41;16.60;79.90
33508;DHT22;25568;37.410;-122.096;2023-02-28T02:00:17;16.50;79.70
33508;DHT22;25568;37.410;-122.096;2023-02-28T02:02:50;16.60;79.70
33508;DHT22;25568;37.410;-122.096;2023-02-28T02:05:20;16.60;79.50
33508;DHT22;25568;37.410;-122.096;2023-02-28T02:07:52;16.60;79.40
33508;DHT22;25568;37.410;-122.096;2023-02-28T02:10:27;16.60;79.30
33508;DHT22;25568;37.410;-122.096;2023-02-28T02:13:16;16.60;79.30
33508;DHT22;25568;37.410;-122.096;2023-02-28T02:15:53;16.60;79.30
33508;DHT22;25568;37.410;-122.096;2023-02-28T02:18:31;16.60;79.40
33508;DHT22;25568;37.410;-122.096;2023-02-28T02:24:30;16.60;79.20
33508;DHT22;25568;37.410;-122.096;2023-02-28T02:27:26;16.60;79.20
33508;DHT22;25568;37.410;-122.096;2023-02-28T02:30:32;16.60;79.20
33508;DHT22;25568;37.410;-122.096;2023-02-28T02:33:15;16.60;79.30
33508;DHT22;25568;37.410;-122.096;2023-02-28T02:35:55;16.60;79.30
33508;DHT22;25568;37.410;-122.096;2023-02-28T02:38:32;16.60;79.30
33508;DHT22;25568;37.410;-122.096;2023-02-28T02:41:08;16.70;79.40
33508;DHT22;25568;37.410;-122.096;2023-02-28T02:43:46;16.70;79.20
33508;DHT22;25568;37.410;-122.096;2023-02-28T02:46:22;16.70;79.20
33508;DHT22;25568;37.410;-122.096;2023-02-28T02:48:54;16.70;79.20
33508;DHT22;25568;37.410;-122.096;2023-02-28T02:51:27;16.70;79.20
33508;DHT22;25568;37.410;-122.096;2023-02-28T02:54:02;16.70;79.20
33508;DHT22;25568;37.410;-122.096;2023-02-28T02:56:34;16.70;79.20
33508;DHT22;25568;37.410;-122.096;2023-02-28T02:59:07;16.70;79.20
33508;DHT22;25568;37.410;-122.096;2023-02-28T03:01:38;16.70;79.50
33508;DHT22;25568;37.410;-122.096;2023-02-28T03:04:11;16.70;79.20
33508;DHT22;25568;37.410;-122.096;2023-02-28T03:06:42;16.60;79.10
33508;DHT22;25568;37.410;-122.096;2023-02-28T03:09:11;16.60;79.10
33508;DHT22;25568;37.410;-122.096;2023-02-28T03:11:43;16.60;79.20
33508;DHT22;25568;37.410;-122.096;2023-02-28T03:14:25;16.60;79.20
33508;DHT22;25568;37.410;-122.096;2023-02-28T03:17:06;16.60;79.40
33508;DHT22;25568;37.410;-122.096;2023-02-28T03:19:47;16.60;79.40
33508;DHT22;25568;37.410;-122.096;2023-02-28T03:22:45;16.60;79.40
33508;DHT22;25568;37.410;-122.096;2023-02-28T03:25:23;16.60;79.40
33508;DHT22;25568;37.410;-122.096;2023-02-28T03:28:02;16.60;79.30
33508;DHT22;25568;37.410;-122.096;2023-02-28T03:30:38;16.50;79.30
33508;DHT22;25568;37.410;-122.096;2023-02-28T03:33:11;16.50;79.30
33508;DHT22;25568;37.410;-122.096;2023-02-28T03:35:43;16.50;79.30
33508;DHT22;25568;37.410;-122.096;2023-02-28T03:38:19;16.50;79.40
33508;DHT22;25568;37.410;-122.096;2023-02-28T03:40:55;16.50;79.40
33508;DHT22;25568;37.410;-122.096;2023-02-28T03:43:29;16.50;79.50
33508;DHT22;25568;37.410;-122.096;2023-02-28T03:46:01;16.50;79.50
33508;DHT22;25568;37.410;-122.096;2023-02-28T03:48:40;16.50;79.50
33508;DHT22;25568;37.410;-122.096;2023-02-28T03:51:11;16.40;79.50
33508;DHT22;25568;37.410;-122.096;2023-02-28T03:53:45;16.40;79.40
33508;DHT22;25568;37.410;-122.096;2023-02-28T03:56:18;16.40;79.40
33508;DHT22;25568;37.410;-122.096;2023-02-28T03:58:51;16.40;79.40
33508;DHT22;25568;37.410;-122.096;2023-02-28T04:01:25;16.30;79.30
33508;DHT22;25568;37.410;-122.096;2023-02-28T04:03:55;16.30;79.30
33508;DHT22;25568;37.410;-122.096;2023-02-28T04:06:25;16.30;79.30
33508;DHT22;25568;37.410;-122.096;2023-02-28T04:08:56;16.30;79.30
33508;DHT22;25568;37.410;-122.096;2023-02-28T04:11:29;16.30;79.50
33508;DHT22;25568;37.410;-122.096;2023-02-28T04:14:02;16.30;79.60
33508;DHT22;25568;37.410;-122.096;2023-02-28T04:16:34;16.40;79.40
33508;DHT22;25568;37.410;-122.096;2023-02-28T04:19:05;16.40;79.30
33508;DHT22;25568;37.410;-122.096;2023-02-28T04:21:36;16.50;79.20
33508;DHT22;25568;37.410;-122.096;2023-02-28T04:26:55;16.50;79.20
33508;DHT22;25568;37.410;-122.096;2023-02-28T04:27:24;16.50;79.00
33508;DHT22;25568;37.410;-122.096;2023-02-28T04:29:55;16.60;79.10
33508;DHT22;25568;37.410;-122.096;2023-02-28T04:32:24;16.60;79.00
33508;DHT22;25568;37.410;-122.096;2023-02-28T04:34:52;16.60;79.00
33508;DHT22;25568;37.410;-122.096;2023-02-28T04:37:21;16.60;79.20
33508;DHT22;25568;37.410;-122.096;2023-02-28T04:39:56;16.60;79.30
33508;DHT22;25568;37.410;-122.096;2023-02-28T04:42:25;16.60;79.50
33508;DHT22;25568;37.410;-122.096;2023-02-28T04:45:02;16.60;79.50
33508;DHT22;25568;37.410;-122.096;2023-02-28T04:47:31;16.70;79.70
33508;DHT22;25568;37.410;-122.096;2023-02-28T04:50:00;16.70;79.80
33508;DHT22;25568;37.410;-122.096;2023-02-28T04:52:30;16.70;79.70
33508;DHT22;25568;37.410;-122.096;2023-02-28T04:55:00;16.70;79.70
33508;DHT22;25568;37.410;-122.096;2023-02-28T04:57:30;16.70;79.70
33508;DHT22;25568;37.410;-122.096;2023-02-28T04:59:58;16.70;79.80
33508;DHT22;25568;37.410;-122.096;2023-02-28T05:02:28;16.80;79.80
33508;DHT22;25568;37.410;-122.096;2023-02-28T05:04:57;16.90;79.50
33508;DHT22;25568;37.410;-122.096;2023-02-28T05:07:26;16.90;79.40
33508;DHT22;25568;37.410;-122.096;2023-02-28T05:09:55;17.00;79.30
33508;DHT22;25568;37.410;-122.096;2023-02-28T05:12:26;17.00;79.20
33508;DHT22;25568;37.410;-122.096;2023-02-28T05:14:55;17.00;78.90
33508;DHT22;25568;37.410;-122.096;2023-02-28T05:17:24;17.00;78.90
33508;DHT22;25568;37.410;-122.096;2023-02-28T05:19:53;17.00;79.00
33508;DHT22;25568;37.410;-122.096;2023-02-28T05:22:22;16.90;78.90
33508;DHT22;25568;37.410;-122.096;2023-02-28T05:24:51;16.90;78.90
33508;DHT22;25568;37.410;-122.096;2023-02-28T05:27:20;16.90;78.90
33508;DHT22;25568;37.410;-122.096;2023-02-28T05:29:50;16.80;78.90
33508;DHT22;25568;37.410;-122.096;2023-02-28T05:32:19;16.80;78.90
33508;DHT22;25568;37.410;-122.096;2023-02-28T05:34:48;16.80;79.00
33508;DHT22;25568;37.410;-122.096;2023-02-28T05:37:16;16.80;79.10
33508;DHT22;25568;37.410;-122.096;2023-02-28T05:39:45;16.80;79.00
33508;DHT22;25568;37.410;-122.096;2023-02-28T05:42:14;16.70;79.00
33508;DHT22;25568;37.410;-122.096;2023-02-28T05:44:43;16.70;79.20
33508;DHT22;25568;37.410;-122.096;2023-02-28T05:47:13;16.60;79.20
33508;DHT22;25568;37.410;-122.096;2023-02-28T05:49:43;16.70;79.80
33508;DHT22;25568;37.410;-122.096;2023-02-28T05:52:12;16.60;79.90
33508;DHT22;25568;37.410;-122.096;2023-02-28T05:54:41;16.60;80.10
33508;DHT22;25568;37.410;-122.096;2023-02-28T05:57:09;16.60;80.40
33508;DHT22;25568;37.410;-122.096;2023-02-28T05:59:51;16.50;80.40
33508;DHT22;25568;37.410;-122.096;2023-02-28T06:02:22;16.50;80.60
33508;DHT22;25568;37.410;-122.096;2023-02-28T06:04:51;16.50;80.40
33508;DHT22;25568;37.410;-122.096;2023-02-28T06:07:20;16.50;80.30
33508;DHT22;25568;37.410;-122.096;2023-02-28T06:09:49;16.40;80.20
33508;DHT22;25568;37.410;-122.096;2023-02-28T06:12:17;16.40;80.20
33508;DHT22;25568;37.410;-122.096;2023-02-28T06:14:49;16.40;80.20
33508;DHT22;25568;37.410;-122.096;2023-02-28T06:17:18;16.40;80.30
33508;DHT22;25568;37.410;-122.096;2023-02-28T06:19:49;16.30;80.30
33508;DHT22;25568;37.410;-122.096;2023-02-28T06:22:18;16.30;80.80
33508;DHT22;25568;37.410;-122.096;2023-02-28T06:24:50;16.30;81.60
33508;DHT22;25568;37.410;-122.096;2023-02-28T06:27:19;16.30;82.10
33508;DHT22;25568;37.410;-122.096;2023-02-28T06:29:48;16.30;82.30
33508;DHT22;25568;37.410;-122.096;2023-02-28T06:32:17;16.30;82.30
33508;DHT22;25568;37.410;-122.096;2023-02-28T06:34:48;16.20;82.20
33508;DHT22;25568;37.410;-122.096;2023-02-28T06:37:17;16.20;82.20
33508;DHT22;25568;37.410;-122.096;2023-02-28T06:39:46;16.20;82.50
33508;DHT22;25568;37.410;-122.096;2023-02-28T06:42:15;16.20;82.70
33508;DHT22;25568;37.410;-122.096;2023-02-28T06:44:44;16.20;82.80
33508;DHT22;25568;37.410;-122.096;2023-02-28T06:47:14;16.20;83.10
33508;DHT22;25568;37.410;-122.096;2023-02-28T06:49:43;16.10;83.30
33508;DHT22;25568;37.410;-122.096;2023-02-28T06:52:15;16.10;83.30
33508;DHT22;25568;37.410;-122.096;2023-02-28T06:54:43;16.10;83.60
33508;DHT22;25568;37.410;-122.096;2023-02-28T06:57:12;16.10;83.70
33508;DHT22;25568;37.410;-122.096;2023-02-28T06:59:41;16.10;83.70
33508;DHT22;25568;37.410;-122.096;2023-02-28T07:02:10;16.10;83.90
33508;DHT22;25568;37.410;-122.096;2023-02-28T07:04:38;16.10;83.60
33508;DHT22;25568;37.410;-122.096;2023-02-28T07:07:11;16.10;83.50
33508;DHT22;25568;37.410;-122.096;2023-02-28T07:09:41;16.20;83.40
33508;DHT22;25568;37.410;-122.096;2023-02-28T07:12:10;16.20;83.30
33508;DHT22;25568;37.410;-122.096;2023-02-28T07:14:39;16.20;83.40
33508;DHT22;25568;37.410;-122.096;2023-02-28T07:17:08;16.30;83.50
33508;DHT22;25568;37.410;-122.096;2023-02-28T07:19:40;16.30;83.50
33508;DHT22;25568;37.410;-122.096;2023-02-28T07:22:09;16.30;83.60
33508;DHT22;25568;37.410;-122.096;2023-02-28T07:24:40;16.30;83.30
33508;DHT22;25568;37.410;-122.096;2023-02-28T07:27:08;16.20;83.80
33508;DHT22;25568;37.410;-122.096;2023-02-28T07:29:37;16.20;84.30
33508;DHT22;25568;37.410;-122.096;2023-02-28T07:32:06;16.20;84.80
33508;DHT22;25568;37.410;-122.096;2023-02-28T07:34:35;16.10;85.00
33508;DHT22;25568;37.410;-122.096;2023-02-28T07:37:04;16.10;85.10
33508;DHT22;25568;37.410;-122.096;2023-02-28T07:39:33;16.10;85.30
33508;DHT22;25568;37.410;-122.096;2023-02-28T07:42:06;16.10;85.40
33508;DHT22;25568;37.410;-122.096;2023-02-28T07:44:38;16.10;85.60
33508;DHT22;25568;37.410;-122.096;2023-02-28T07:47:08;16.00;85.60
33508;DHT22;25568;37.410;-122.096;2023-02-28T07:49:38;16.00;85.80
33508;DHT22;25568;37.410;-122.096;2023-02-28T07:52:07;16.00;85.60
33508;DHT22;25568;37.410;-122.096;2023-02-28T07:54:36;16.10;85.40
33508;DHT22;25568;37.410;-122.096;2023-02-28T07:57:07;16.10;85.30
33508;DHT22;25568;37.410;-122.096;2023-02-28T07:59:36;16.10;85.20
33508;DHT22;25568;37.410;-122.096;2023-02-28T08:02:06;16.10;85.10
33508;DHT22;25568;37.410;-122.096;2023-02-28T08:04:35;16.20;85.20
33508;DHT22;25568;37.410;-122.096;2023-02-28T08:07:04;16.20;85.10
33508;DHT22;25568;37.410;-122.096;2023-02-28T08:09:33;16.20;85.10
33508;DHT22;25568;37.410;-122.096;2023-02-28T08:12:02;16.30;85.30
33508;DHT22;25568;37.410;-122.096;2023-02-28T08:14:33;16.30;85.40
33508;DHT22;25568;37.410;-122.096;2023-02-28T08:17:02;16.30;85.40
33508;DHT22;25568;37.410;-122.096;2023-02-28T08:19:31;16.40;85.60
33508;DHT22;25568;37.410;-122.096;2023-02-28T08:22:00;16.40;85.70
33508;DHT22;25568;37.410;-122.096;2023-02-28T08:24:29;16.50;85.80
33508;DHT22;25568;37.410;-122.096;2023-02-28T08:27:00;16.50;85.80
33508;DHT22;25568;37.410;-122.096;2023-02-28T08:29:28;16.50;85.80
33508;DHT22;25568;37.410;-122.096;2023-02-28T08:31:59;16.50;85.80
33508;DHT22;25568;37.410;-122.096;2023-02-28T08:34:28;16.60;85.80
33508;DHT22;25568;37.410;-122.096;2023-02-28T08:36:57;16.60;85.80
33508;DHT22;25568;37.410;-122.096;2023-02-28T08:39:26;16.60;85.90
33508;DHT22;25568;37.410;-122.096;2023-02-28T08:41:55;16.70;85.90
33508;DHT22;25568;37.410;-122.096;2023-02-28T08:44:24;16.70;86.00
33508;DHT22;25568;37.410;-122.096;2023-02-28T08:46:53;16.70;86.10
33508;DHT22;25568;37.410;-122.096;2023-02-28T08:49:24;16.70;86.10
33508;DHT22;25568;37.410;-122.096;2023-02-28T08:51:53;16.80;86.00
33508;DHT22;25568;37.410;-122.096;2023-02-28T08:54:24;16.70;85.90
33508;DHT22;25568;37.410;-122.096;2023-02-28T08:56:52;16.70;85.90
33508;DHT22;25568;37.410;-122.096;2023-02-28T08:59:24;16.60;86.20
33508;DHT22;25568;37.410;-122.096;2023-02-28T09:01:53;16.60;86.40
33508;DHT22;25568;37.410;-122.096;2023-02-28T09:04:24;16.50;86.60
33508;DHT22;25568;37.410;-122.096;2023-02-28T09:06:53;16.50;86.90
33508;DHT22;25568;37.410;-122.096;2023-02-28T09:09:24;16.50;87.00
33508;DHT22;25568;37.410;-122.096;2023-02-28T09:11:55;16.50;87.10
33508;DHT22;25568;37.410;-122.096;2023-02-28T09:14:24;16.50;87.40
33508;DHT22;25568;37.410;-122.096;2023-02-28T09:16:53;16.40;87.90
33508;DHT22;25568;37.410;-122.096;2023-02-28T09:19:26;16.40;87.60
33508;DHT22;25568;37.410;-122.096;2023-02-28T09:21:55;16.40;87.70
33508;DHT22;25568;37.410;-122.096;2023-02-28T09:24:24;16.40;87.70
33508;DHT22;25568;37.410;-122.096;2023-02-28T09:26:53;16.40;87.90
33508;DHT22;25568;37.410;-122.096;2023-02-28T09:29:22;16.30;87.90
33508;DHT22;25568;37.410;-122.096;2023-02-28T09:31:51;16.30;88.00
33508;DHT22;25568;37.410;-122.096;2023-02-28T09:34:20;16.30;88.10
33508;DHT22;25568;37.410;-122.096;2023-02-28T09:36:50;16.30;88.20
33508;DHT22;25568;37.410;-122.096;2023-02-28T09:39:21;16.30;88.20
33508;DHT22;25568;37.410;-122.096;2023-02-28T09:41:52;16.30;88.30
33508;DHT22;25568;37.410;-122.096;2023-02-28T09:44:27;16.20;88.40
33508;DHT22;25568;37.410;-122.096;2023-02-28T09:47:05;16.20;88.40
33508;DHT22;25568;37.410;-122.096;2023-02-28T09:49:40;16.20;88.60
33508;DHT22;25568;37.410;-122.096;2023-02-28T09:52:15;16.20;88.70
33508;DHT22;25568;37.410;-122.096;2023-02-28T09:54:46;16.20;88.80
33508;DHT22;25568;37.410;-122.096;2023-02-28T09:57:19;16.20;89.70
33508;DHT22;25568;37.410;-122.096;2023-02-28T10:00:00;16.20;89.10
33508;DHT22;25568;37.410;-122.096;2023-02-28T10:03:01;16.10;88.90
33508;DHT22;25568;37.410;-122.096;2023-02-28T10:05:35;16.10;89.00
33508;DHT22;25568;37.410;-122.096;2023-02-28T10:08:13;16.10;89.10
33508;DHT22;25568;37.410;-122.096;2023-02-28T10:10:44;16.10;89.20
33508;DHT22;25568;37.410;-122.096;2023-02-28T10:13:20;16.10;89.50
33508;DHT22;25568;37.410;-122.096;2023-02-28T10:15:53;16.10;89.50
33508;DHT22;25568;37.410;-122.096;2023-02-28T10:18:27;16.00;89.50
33508;DHT22;25568;37.410;-122.096;2023-02-28T10:20:57;16.00;89.50
33508;DHT22;25568;37.410;-122.096;2023-02-28T10:23:34;16.00;89.30
33508;DHT22;25568;37.410;-122.096;2023-02-28T10:26:11;16.10;89.10
33508;DHT22;25568;37.410;-122.096;2023-02-28T10:28:42;16.10;89.00
33508;DHT22;25568;37.410;-122.096;2023-02-28T10:31:16;16.20;88.90
33508;DHT22;25568;37.410;-122.096;2023-02-28T10:33:46;16.20;88.70
33508;DHT22;25568;37.410;-122.096;2023-02-28T10:36:16;16.20;88.70
33508;DHT22;25568;37.410;-122.096;2023-02-28T10:38:48;16.30;88.90
33508;DHT22;25568;37.410;-122.096;2023-02-28T10:41:26;16.30;88.90
33508;DHT22;25568;37.410;-122.096;2023-02-28T10:44:13;16.30;88.80
33508;DHT22;25568;37.410;-122.096;2023-02-28T10:46:43;16.40;88.80
33508;DHT22;25568;37.410;-122.096;2023-02-28T10:49:20;16.40;88.80
33508;DHT22;25568;37.410;-122.096;2023-02-28T10:51:51;16.50;88.90
33508;DHT22;25568;37.410;-122.096;2023-02-28T10:54:24;16.50;88.80
33508;DHT22;25568;37.410;-122.096;2023-02-28T10:57:17;16.50;88.90
33508;DHT22;25568;37.410;-122.096;2023-02-28T10:59:49;16.60;89.00
33508;DHT22;25568;37.410;-122.096;2023-02-28T11:02:33;16.60;89.10
33508;DHT22;25568;37.410;-122.096;2023-02-28T11:05:03;16.60;89.20
33508;DHT22;25568;37.410;-122.096;2023-02-28T11:07:53;16.60;89.10
33508;DHT22;25568;37.410;-122.096;2023-02-28T11:10:26;16.70;89.20
33508;DHT22;25568;37.410;-122.096;2023-02-28T11:12:57;16.70;89.30
33508;DHT22;25568;37.410;-122.096;2023-02-28T11:15:28;16.60;89.20
33508;DHT22;25568;37.410;-122.096;2023-02-28T11:17:59;16.60;90.00
33508;DHT22;25568;37.410;-122.096;2023-02-28T11:20:30;16.60;89.20
33508;DHT22;25568;37.410;-122.096;2023-02-28T11:23:02;16.50;89.20
33508;DHT22;25568;37.410;-122.096;2023-02-28T11:25:34;16.50;89.50
33508;DHT22;25568;37.410;-122.096;2023-02-28T11:28:06;16.50;89.80
33508;DHT22;25568;37.410;-122.096;2023-02-28T11:31:01;16.50;90.00
33508;DHT22;25568;37.410;-122.096;2023-02-28T11:33:32;16.50;90.00
33508;DHT22;25568;37.410;-122.096;2023-02-28T11:36:03;16.40;90.00
33508;DHT22;25568;37.410;-122.096;2023-02-28T11:38:38;16.40;90.10
33508;DHT22;25568;37.410;-122.096;2023-02-28T11:41:19;16.40;90.10
33508;DHT22;25568;37.410;-122.096;2023-02-28T11:44:04;16.40;90.10
33508;DHT22;25568;37.410;-122.096;2023-02-28T11:46:39;16.40;90.20
33508;DHT22;25568;37.410;-122.096;2023-02-28T11:49:26;16.40;90.20
33508;DHT22;25568;37.410;-122.096;2023-02-28T11:52:01;16.40;90.30
33508;DHT22;25568;37.410;-122.096;2023-02-28T11:54:51;16.40;90.30
33508;DHT22;25568;37.410;-122.096;2023-02-28T11:57:40;16.40;90.40
33508;DHT22;25568;37.410;-122.096;2023-02-28T12:00:27;16.30;90.40
33508;DHT22;25568;37.410;-122.096;2023-02-28T12:03:06;16.30;90.50
33508;DHT22;25568;37.410;-122.096;2023-02-28T12:05:43;16.30;90.90
33508;DHT22;25568;37.410;-122.096;2023-02-28T12:08:26;16.30;90.50
33508;DHT22;25568;37.410;-122.096;2023-02-28T12:11:05;16.30;90.60
33508;DHT22;25568;37.410;-122.096;2023-02-28T12:13:48;16.30;90.60
33508;DHT22;25568;37.410;-122.096;2023-02-28T12:16:47;16.30;90.70
33508;DHT22;25568;37.410;-122.096;2023-02-28T12:19:20;16.30;90.90
33508;DHT22;25568;37.410;-122.096;2023-02-28T12:22:10;16.30;90.90
33508;DHT22;25568;37.410;-122.096;2023-02-28T12:25:01;16.30;90.90
33508;DHT22;25568;37.410;-122.096;2023-02-28T12:27:37;16.20;90.90
33508;DHT22;25568;37.410;-122.096;2023-02-28T12:30:15;16.20;90.90
33508;DHT22;25568;37.410;-122.096;2023-02-28T12:32:47;16.20;90.90
33508;DHT22;25568;37.410;-122.096;2023-02-28T12:35:21;16.20;90.90
33508;DHT22;25568;37.410;-122.096;2023-02-28T12:38:10;16.20;90.90
33508;DHT22;25568;37.410;-122.096;2023-02-28T12:40:45;16.10;90.90
33508;DHT22;25568;37.410;-122.096;2023-02-28T12:43:17;16.10;90.90
33508;DHT22;25568;37.410;-122.096;2023-02-28T12:45:52;16.10;90.90
33508;DHT22;25568;37.410;-122.096;2023-02-28T12:48:25;16.10;91.00
33508;DHT22;25568;37.410;-122.096;2023-02-28T12:50:57;16.10;91.00
33508;DHT22;25568;37.410;-122.096;2023-02-28T12:53:30;16.10;91.00
33508;DHT22;25568;37.410;-122.096;2023-02-28T12:56:08;16.20;90.90
33508;DHT22;25568;37.410;-122.096;2023-02-28T12:58:41;16.30;90.80
33508;DHT22;25568;37.410;-122.096;2023-02-28T13:01:41;16.30;90.80
33508;DHT22;25568;37.410;-122.096;2023-02-28T13:04:52;16.40;90.70
33508;DHT22;25568;37.410;-122.096;2023-02-28T13:07:48;16.40;90.70
33508;DHT22;25568;37.410;-122.096;2023-02-28T13:10:24;16.40;90.60
33508;DHT22;25568;37.410;-122.096;2023-02-28T13:12:54;16.50;90.70
33508;DHT22;25568;37.410;-122.096;2023-02-28T13:15:25;16.50;90.60
33508;DHT22;25568;37.410;-122.096;2023-02-28T13:17:58;16.50;90.60
33508;DHT22;25568;37.410;-122.096;2023-02-28T13:20:33;16.60;90.60
33508;DHT22;25568;37.410;-122.096;2023-02-28T13:23:03;16.60;90.60
33508;DHT22;25568;37.410;-122.096;2023-02-28T13:25:53;16.60;90.60
33508;DHT22;25568;37.410;-122.096;2023-02-28T13:31:27;16.70;90.60
33508;DHT22;25568;37.410;-122.096;2023-02-28T13:34:13;16.70;90.60
33508;DHT22;25568;37.410;-122.096;2023-02-28T13:36:43;16.70;90.60
33508;DHT22;25568;37.410;-122.096;2023-02-28T13:39:45;16.70;90.60
33508;DHT22;25568;37.410;-122.096;2023-02-28T13:42:33;16.80;90.60
33508;DHT22;25568;37.410;-122.096;2023-02-28T13:45:24;16.80;90.60
33508;DHT22;25568;37.410;-122.096;2023-02-28T13:47:55;16.80;90.50
33508;DHT22;25568;37.410;-122.096;2023-02-28T13:50:36;16.80;90.50
33508;DHT22;25568;37.410;-122.096;2023-02-28T13:56:34;16.70;90.50
33508;DHT22;25568;37.410;-122.096;2023-02-28T13:59:17;16.70;90.50
33508;DHT22;25568;37.410;-122.096;2023-02-28T14:02:00;16.70;90.60
33508;DHT22;25568;37.410;-122.096;2023-02-28T14:04:50;16.60;90.60
33508;DHT22;25568;37.410;-122.096;2023-02-28T14:07:26;16.60;90.60
33508;DHT22;25568;37.410;-122.096;2023-02-28T14:10:00;16.60;90.60
33508;DHT22;25568;37.410;-122.096;2023-02-28T14:13:00;16.60;90.60
33508;DHT22;25568;37.410;-122.096;2023-02-28T14:15:50;16.50;90.60
33508;DHT22;25568;37.410;-122.096;2023-02-28T14:18:29;16.50;90.70
33508;DHT22;25568;37.410;-122.096;2023-02-28T14:21:09;16.50;90.70
33508;DHT22;25568;37.410;-122.096;2023-02-28T14:26:55;16.50;90.80
33508;DHT22;25568;37.410;-122.096;2023-02-28T14:32:41;16.40;90.80
33508;DHT22;25568;37.410;-122.096;2023-02-28T14:35:29;16.40;90.80
33508;DHT22;25568;37.410;-122.096;2023-02-28T14:38:20;16.40;90.80
33508;DHT22;25568;37.410;-122.096;2023-02-28T14:40:54;16.40;90.90
33508;DHT22;25568;37.410;-122.096;2023-02-28T14:43:27;16.40;91.00
33508;DHT22;25568;37.410;-122.096;2023-02-28T14:45:57;16.40;90.90
33508;DHT22;25568;37.410;-122.096;2023-02-28T14:48:27;16.30;90.80
33508;DHT22;25568;37.410;-122.096;2023-02-28T14:50:58;16.30;90.80
33508;DHT22;25568;37.410;-122.096;2023-02-28T14:53:37;16.30;90.70
33508;DHT22;25568;37.410;-122.096;2023-02-28T14:56:22;16.30;90.70
33508;DHT22;25568;37.410;-122.096;2023-02-28T14:58:53;16.30;90.80
33508;DHT22;25568;37.410;-122.096;2023-02-28T15:01:24;16.30;90.80
33508;DHT22;25568;37.410;-122.096;2023-02-28T15:04:01;16.20;90.60
33508;DHT22;25568;37.410;-122.096;2023-02-28T15:06:30;16.20;90.40
33508;DHT22;25568;37.410;-122.096;2023-02-28T15:09:17;16.20;90.60
33508;DHT22;25568;37.410;-122.096;2023-02-28T15:11:50;16.20;90.10
33508;DHT22;25568;37.410;-122.096;2023-02-28T15:14:21;16.20;90.10
33508;DHT22;25568;37.410;-122.096;2023-02-28T15:16:55;16.20;90.00
33508;DHT22;25568;37.410;-122.096;2023-02-28T15:19:27;16.20;90.10
33508;DHT22;25568;37.410;-122.096;2023-02-28T15:22:01;16.20;90.00
33508;DHT22;25568;37.410;-122.096;2023-02-28T15:24:36;16.10;89.70
33508;DHT22;25568;37.410;-122.096;2023-02-28T15:27:12;16.10;89.50
33508;DHT22;25568;37.410;-122.096;2023-02-28T15:29:45;16.10;89.20
33508;DHT22;25568;37.410;-122.096;2023-02-28T15:32:27;16.10;89.00
33508;DHT22;25568;37.410;-122.096;2023-02-28T15:34:57;16.10;88.80
33508;DHT22;25568;37.410;-122.096;2023-02-28T15:37:39;16.20;88.10
33508;DHT22;25568;37.410;-122.096;2023-02-28T15:40:14;16.30;87.40
33508;DHT22;25568;37.410;-122.096;2023-02-28T15:42:59;16.40;86.80
33508;DHT22;25568;37.410;-122.096;2023-02-28T15:45:33;16.50;86.50